Time;durP1;ratioP1;P1;durP2;ratioP2;P2;SDS_P1;SDS_P2;PMS_P1;PMS_P2;Temp;Humidity;BMP_temperature;BMP_pressure;BME280_temperature;BME280_humidity;BME280_pressure;Samples;Min_cycle;Max_cycle;Signal;HPM_P1;HPM_P2
2021/11/25 00:01:41;;;;;;;6.50;3.95;;;;;;;18.84;40.42;101331.88;5094539;28;20059;-65
2021/11/25 00:04:06;;;;;;;5.72;3.70;;;;;;;18.83;40.01;101338.09;5094679;28;20050;-65
2021/11/25 00:06:31;;;;;;;7.13;3.78;;;;;;;18.80;40.34;101330.41;5093600;28;20060;-65
2021/11/25 00:08:57;;;;;;;5.60;3.78;;;;;;;18.78;40.28;101327.03;5094488;28;20020;-65
2021/11/25 00:11:24;;;;;;;6.30;4.35;;;;;;;18.76;40.34;101325.47;5094484;28;20081;-64
2021/11/25 00:13:49;;;;;;;5.93;3.92;;;;;;;18.73;40.23;101315.97;5093662;28;20039;-66
2021/11/25 00:16:14;;;;;;;6.38;4.10;;;;;;;18.72;40.21;101310.81;5094607;28;20024;-65
2021/11/25 00:18:40;;;;;;;6.50;4.17;;;;;;;18.70;40.37;101308.28;5094039;28;20020;-64
2021/11/25 00:21:05;;;;;;;5.78;3.78;;;;;;;18.68;39.99;101310.22;5093545;28;20703;-65
2021/11/25 00:23:30;;;;;;;5.70;3.97;;;;;;;18.66;39.90;101314.78;5093746;28;20026;-66
2021/11/25 00:25:56;;;;;;;5.68;4.00;;;;;;;18.63;40.12;101307.94;5093820;28;20039;-66
2021/11/25 00:28:21;;;;;;;6.30;4.15;;;;;;;18.61;40.13;101309.84;5093288;28;20050;-66
2021/11/25 00:30:47;;;;;;;6.30;4.13;;;;;;;18.60;39.87;101304.69;5093855;28;20016;-66
2021/11/25 00:33:12;;;;;;;7.35;3.72;;;;;;;18.58;39.95;101309.22;5093764;28;20115;-66
2021/11/25 00:35:37;;;;;;;6.78;4.30;;;;;;;18.53;40.18;101304.28;5092596;28;20434;-65
2021/11/25 00:38:03;;;;;;;6.00;3.70;;;;;;;18.54;39.99;101303.34;5093374;28;20554;-63
2021/11/25 00:40:28;;;;;;;5.45;3.50;;;;;;;18.52;39.87;101293.84;5093127;28;20115;-65
2021/11/25 00:42:53;;;;;;;6.07;3.75;;;;;;;18.52;40.02;101293.84;5092894;28;20108;-66
2021/11/25 00:45:19;;;;;;;6.03;3.67;;;;;;;18.50;39.61;101299.28;5093483;28;20028;-66
2021/11/25 00:47:45;;;;;;;6.68;3.70;;;;;;;18.48;39.95;101311.72;5093169;28;20471;-66
2021/11/25 00:50:13;;;;;;;6.05;3.90;;;;;;;18.46;39.95;101317.13;5092272;28;20116;-66
2021/11/25 00:52:39;;;;;;;5.50;3.55;;;;;;;18.44;39.87;101313.75;5108456;28;20020;-66
2021/11/25 00:55:06;;;;;;;7.00;4.00;;;;;;;18.43;39.82;101306.78;5093541;28;20074;-66
2021/11/25 00:57:31;;;;;;;6.10;3.63;;;;;;;18.42;39.50;101307.75;5092147;28;20028;-66
2021/11/25 00:59:57;;;;;;;5.85;3.78;;;;;;;18.40;39.84;101306.19;5093099;28;20020;-65
2021/11/25 01:02:22;;;;;;;5.60;3.65;;;;;;;18.38;39.44;101308.94;5093227;28;20024;-65
2021/11/25 01:04:48;;;;;;;6.18;3.95;;;;;;;18.36;39.87;101308.22;5091859;28;20379;-65
2021/11/25 01:07:13;;;;;;;6.07;3.97;;;;;;;18.35;39.41;101303.88;5092910;28;20100;-65
2021/11/25 01:09:39;;;;;;;6.07;3.83;;;;;;;18.31;39.60;101303.28;5091971;28;20101;-66
2021/11/25 01:12:06;;;;;;;6.22;4.00;;;;;;;18.32;39.38;101301.47;5093063;28;20056;-66
2021/11/25 01:14:34;;;;;;;6.32;3.65;;;;;;;18.30;39.64;101317.41;5092591;28;20039;-64
2021/11/25 01:16:59;;;;;;;5.85;3.95;;;;;;;18.26;39.64;101294.88;5092114;28;20032;-66
2021/11/25 01:19:25;;;;;;;5.90;3.72;;;;;;;18.26;39.78;101299.28;5092365;28;20020;-65
2021/11/25 01:21:51;;;;;;;7.25;3.72;;;;;;;18.27;39.63;101300.97;5092470;28;20035;-65
2021/11/25 01:24:16;;;;;;;6.90;3.60;;;;;;;18.25;39.63;101298.47;5092003;28;20016;-65
2021/11/25 01:26:42;;;;;;;5.70;3.70;;;;;;;18.23;39.29;101297.75;5092669;28;20111;-65
2021/11/25 01:29:08;;;;;;;6.28;3.97;;;;;;;18.22;39.45;101303.97;5092630;28;20479;-65
2021/11/25 01:31:33;;;;;;;5.55;3.58;;;;;;;18.22;39.35;101297.84;5091444;28;20074;-65
2021/11/25 01:33:58;;;;;;;5.45;3.38;;;;;;;18.20;39.13;101291.81;5092498;28;20081;-66
2021/11/25 01:36:24;;;;;;;6.60;3.85;;;;;;;18.19;39.39;101298.09;5092156;28;20049;-66
2021/11/25 01:38:49;;;;;;;6.00;3.78;;;;;;;18.17;39.13;101300.00;5092055;28;20096;-66
2021/11/25 01:41:16;;;;;;;6.38;3.70;;;;;;;18.16;39.34;101293.03;5092649;28;20459;-66
2021/11/25 01:43:42;;;;;;;6.10;3.72;;;;;;;18.15;39.42;101297.47;5092234;28;20020;-65
2021/11/25 01:46:17;;;;;;;6.18;3.58;;;;;;;18.14;39.22;101285.22;5091985;28;20380;-65
2021/11/25 01:48:44;;;;;;;5.45;3.25;;;;;;;18.12;39.33;101282.69;5092154;28;20024;-65
2021/11/25 01:51:10;;;;;;;6.00;3.65;;;;;;;18.12;39.04;101284.50;5092334;28;20031;-65
2021/11/25 01:53:36;;;;;;;6.22;3.95;;;;;;;18.10;39.37;101286.41;5091263;28;20487;-65
2021/11/25 01:56:04;;;;;;;6.72;3.65;;;;;;;18.08;39.12;101283.88;5091902;28;20036;-65
2021/11/25 01:58:30;;;;;;;6.15;3.80;;;;;;;18.08;38.79;101281.25;5091813;28;20046;-66
2021/11/25 02:00:57;;;;;;;6.13;3.80;;;;;;;18.06;39.02;101269.97;5091351;28;20020;-66
2021/11/25 02:03:23;;;;;;;5.85;3.70;;;;;;;18.06;38.93;101264.69;5092176;28;20028;-65
2021/11/25 02:05:49;;;;;;;6.70;4.00;;;;;;;18.03;38.80;101264.91;5091079;28;20024;-64
2021/11/25 02:08:14;;;;;;;5.82;3.67;;;;;;;18.04;39.04;101271.03;5092006;28;20168;-66
2021/11/25 02:10:42;;;;;;;6.10;4.07;;;;;;;18.02;39.06;101263.22;5091896;28;20028;-65
2021/11/25 02:13:08;;;;;;;6.15;3.67;;;;;;;18.02;38.73;101272.94;5091638;28;20063;-65
2021/11/25 02:15:37;;;;;;;6.40;3.72;;;;;;;18.01;39.08;101260.69;5091708;28;20042;-65
2021/11/25 02:18:14;;;;;;;5.93;3.50;;;;;;;18.00;38.94;101267.78;5091878;28;20048;-65
2021/11/25 02:20:45;;;;;;;5.50;3.33;;;;;;;17.99;38.78;101255.56;5091009;28;20475;-65
2021/11/25 02:23:12;;;;;;;6.30;4.05;;;;;;;17.99;38.91;101255.56;5091977;28;20097;-65
2021/11/25 02:25:37;;;;;;;7.97;4.28;;;;;;;18.01;38.68;101253.66;5091586;28;20031;-65
2021/11/25 02:28:03;;;;;;;7.13;4.18;;;;;;;18.04;38.81;101257.84;5091165;28;20044;-66
2021/11/25 02:30:29;;;;;;;6.05;4.00;;;;;;;18.05;38.58;101254.25;5092037;28;20024;-66
2021/11/25 02:32:54;;;;;;;8.38;3.75;;;;;;;18.05;38.33;101243.72;5092126;28;20432;-65
2021/11/25 02:35:26;;;;;;;6.05;3.70;;;;;;;18.07;38.35;101234.75;5091137;28;20451;-65
2021/11/25 02:37:53;;;;;;;6.65;3.80;;;;;;;18.09;38.20;101234.63;5091991;28;20153;-65
2021/11/25 02:40:21;;;;;;;6.72;3.83;;;;;;;18.07;38.58;101232.09;5091904;28;20099;-66
2021/11/25 02:42:49;;;;;;;7.15;4.00;;;;;;;18.09;38.37;101224.91;5090474;28;20364;-65
2021/11/25 02:45:15;;;;;;;6.18;3.88;;;;;;;18.10;38.20;101225.72;5091721;28;20106;-64
2021/11/25 02:47:40;;;;;;;6.15;3.90;;;;;;;18.10;38.24;101226.59;5091256;28;20185;-65
2021/11/25 02:50:06;;;;;;;5.78;3.70;;;;;;;18.09;38.23;101219.63;5091229;28;20032;-65
2021/11/25 02:52:31;;;;;;;5.63;3.75;;;;;;;18.09;38.01;101216.16;5091484;28;20475;-65
2021/11/25 02:54:57;;;;;;;6.03;3.80;;;;;;;18.11;37.89;101216.88;5091919;28;20035;-66
2021/11/25 02:57:22;;;;;;;5.95;3.83;;;;;;;18.10;38.17;101221.31;5091032;28;20036;-66
2021/11/25 02:59:47;;;;;;;6.20;3.88;;;;;;;18.10;38.08;101218.69;5091248;28;20047;-66
2021/11/25 03:02:13;;;;;;;6.18;3.95;;;;;;;18.10;37.98;101221.31;5091182;28;20028;-64
2021/11/25 03:04:38;;;;;;;5.87;4.00;;;;;;;18.10;37.95;101212.53;5091619;28;20402;-65
2021/11/25 03:07:03;;;;;;;5.75;3.72;;;;;;;18.10;38.10;101208.13;5091211;28;20363;-66
2021/11/25 03:09:28;;;;;;;6.53;3.75;;;;;;;18.09;37.76;101206.44;5092654;28;20028;-65
2021/11/25 03:11:55;;;;;;;6.18;3.72;;;;;;;18.10;37.81;101202.00;5095228;28;20040;-66
2021/11/25 03:14:21;;;;;;;6.85;4.15;;;;;;;18.09;38.02;101195.06;5094953;28;20040;-64
2021/11/25 03:16:47;;;;;;;6.03;4.13;;;;;;;18.09;37.65;101189.78;5094309;28;20035;-66
2021/11/25 03:19:13;;;;;;;6.38;3.90;;;;;;;18.08;37.79;101188.91;5095207;28;20032;-66
2021/11/25 03:21:39;;;;;;;7.05;4.47;;;;;;;18.07;37.89;101182.00;5095020;28;20016;-66
2021/11/25 03:24:05;;;;;;;5.68;3.70;;;;;;;18.08;37.50;101183.66;5094530;28;20028;-65
2021/11/25 03:26:30;;;;;;;6.55;4.28;;;;;;;18.09;37.51;101187.16;5094985;28;20181;-65
2021/11/25 03:29:00;;;;;;;5.78;3.72;;;;;;;18.09;37.44;101187.97;5094912;28;20118;-65
2021/11/25 03:31:28;;;;;;;7.68;4.10;;;;;;;18.08;37.56;101185.47;5094258;28;20028;-66
2021/11/25 03:33:57;;;;;;;6.82;4.13;;;;;;;18.09;37.63;101184.50;5095104;28;20028;-66
2021/11/25 03:36:24;;;;;;;6.20;3.92;;;;;;;18.10;37.73;101178.25;5094947;28;20120;-65
2021/11/25 03:38:49;;;;;;;6.60;4.05;;;;;;;18.09;37.48;101177.44;5093990;28;20032;-66
2021/11/25 03:41:16;;;;;;;6.85;4.03;;;;;;;18.10;37.24;101179.13;5094868;28;20043;-66
2021/11/25 03:43:42;;;;;;;5.85;4.13;;;;;;;18.11;37.30;101182.59;5094692;28;20055;-66
2021/11/25 03:46:16;;;;;;;6.43;3.90;;;;;;;18.09;37.31;101180.06;5094025;28;20051;-66
2021/11/25 03:48:41;;;;;;;7.43;3.50;;;;;;;18.09;37.49;101166.88;5094372;28;20029;-66
2021/11/25 03:51:09;;;;;;;8.13;3.97;;;;;;;18.10;37.39;101168.56;5094611;28;20024;-67
2021/11/25 03:53:37;;;;;;;5.90;4.03;;;;;;;18.08;37.21;101159.91;5093625;28;20030;-66
2021/11/25 03:56:03;;;;;;;6.40;3.78;;;;;;;18.08;37.42;101159.09;5094813;28;20090;-65
2021/11/25 03:58:29;;;;;;;7.18;3.90;;;;;;;18.08;37.24;101162.56;5093895;28;20043;-66
2021/11/25 04:00:54;;;;;;;5.82;3.65;;;;;;;18.08;37.11;101165.19;5095008;28;20028;-66
2021/11/25 04:03:21;;;;;;;7.63;3.53;;;;;;;18.07;37.36;101152.13;5094965;28;20119;-66
2021/11/25 04:05:47;;;;;;;5.53;3.83;;;;;;;18.07;37.39;101149.47;5093798;28;20107;-68
2021/11/25 04:08:12;;;;;;;8.02;3.90;;;;;;;18.06;37.22;101151.28;5094795;28;20107;-65
2021/11/25 04:10:38;;;;;;;7.20;4.17;;;;;;;18.06;37.37;101150.44;5094545;28;20031;-67
2021/11/25 04:13:04;;;;;;;6.15;3.42;;;;;;;18.05;37.56;101152.22;5094267;28;20284;-66
2021/11/25 04:15:29;;;;;;;8.27;3.75;;;;;;;18.06;37.58;101146.00;5094405;28;20115;-65
2021/11/25 04:17:54;;;;;;;6.38;3.65;;;;;;;18.05;37.25;101138.22;5094796;28;20535;-66
2021/11/25 04:20:20;;;;;;;8.18;4.10;;;;;;;18.06;37.40;101138.09;5093481;28;20092;-66
2021/11/25 04:22:45;;;;;;;5.63;3.70;;;;;;;18.08;37.50;101146.72;5094107;28;20145;-66
2021/11/25 04:25:13;;;;;;;5.80;3.40;;;;;;;18.08;37.43;101140.63;5094085;28;20020;-66
2021/11/25 04:27:38;;;;;;;6.30;3.50;;;;;;;18.07;37.13;101134.50;5093320;28;20071;-66
2021/11/25 04:30:23;;;;;;;6.55;3.75;;;;;;;18.07;37.42;101150.34;5094316;28;20144;-65
2021/11/25 04:35:35;;;;;;;6.75;3.50;;;;;;;18.08;37.05;101140.63;5093219;28;20081;-65
2021/11/25 04:38:05;;;;;;;5.68;3.90;;;;;;;18.07;36.98;101139.78;5093939;28;20107;-66
2021/11/25 04:40:34;;;;;;;7.18;3.60;;;;;;;18.08;37.12;101144.09;5093293;28;20035;-65
2021/11/25 04:43:01;;;;;;;6.10;3.60;;;;;;;18.08;37.07;101148.53;5094091;28;20047;-65
2021/11/25 04:45:30;;;;;;;5.97;3.70;;;;;;;18.09;37.08;101152.84;5093623;28;20047;-66
2021/11/25 04:47:55;;;;;;;6.18;3.80;;;;;;;18.07;37.15;101145.06;5093032;28;20039;-66
2021/11/25 04:50:21;;;;;;;8.02;3.90;;;;;;;18.08;37.61;101143.25;5093806;28;20024;-66
2021/11/25 04:52:48;;;;;;;6.97;3.95;;;;;;;18.07;37.43;101150.34;5093386;28;20012;-65
2021/11/25 04:55:13;;;;;;;6.63;3.40;;;;;;;18.09;37.38;101144.94;5092900;28;20455;-65
2021/11/25 04:57:39;;;;;;;5.53;3.55;;;;;;;18.08;37.59;101144.09;5093419;28;20030;-65
2021/11/25 05:00:06;;;;;;;6.05;3.90;;;;;;;18.09;37.65;101153.69;5093597;28;20032;-66
2021/11/25 05:02:31;;;;;;;6.28;3.70;;;;;;;18.10;37.50;101155.38;5092533;28;20039;-66
2021/11/25 05:04:56;;;;;;;6.40;4.18;;;;;;;18.11;37.33;101154.41;5093367;28;20024;-65
2021/11/25 05:07:22;;;;;;;7.10;3.88;;;;;;;18.09;37.32;101150.22;5093469;28;20498;-66
2021/11/25 05:09:47;;;;;;;6.80;4.43;;;;;;;18.10;37.54;101158.00;5092530;28;20107;-66
2021/11/25 05:12:12;;;;;;;8.10;3.83;;;;;;;18.11;37.45;101169.41;5093403;28;20767;-65
2021/11/25 05:14:38;;;;;;;7.60;4.00;;;;;;;18.10;37.14;101163.28;5092850;28;20392;-65
2021/11/25 05:17:03;;;;;;;7.25;3.65;;;;;;;18.09;37.44;101168.69;5092507;28;20082;-65
2021/11/25 05:19:28;;;;;;;7.88;3.72;;;;;;;18.10;37.37;101168.56;5092784;28;20028;-65
2021/11/25 05:21:54;;;;;;;5.72;3.50;;;;;;;18.10;37.30;101158.00;5093025;28;20185;-66
2021/11/25 05:24:19;;;;;;;6.20;3.90;;;;;;;18.10;37.12;101157.16;5092468;28;20044;-66
2021/11/25 05:26:45;;;;;;;5.85;3.60;;;;;;;18.10;37.31;101152.75;5092939;28;20020;-66
2021/11/25 05:29:10;;;;;;;6.82;3.80;;;;;;;18.10;37.26;101152.75;5093272;28;20420;-66
2021/11/25 05:31:36;;;;;;;6.70;3.87;;;;;;;18.11;37.28;101153.56;5091242;28;20032;-65
2021/11/25 05:34:01;;;;;;;7.53;3.95;;;;;;;18.10;37.32;101155.38;5092769;28;20275;-65
2021/11/25 05:36:26;;;;;;;6.55;3.45;;;;;;;18.11;37.40;101150.94;5092443;28;20020;-65
2021/11/25 05:38:52;;;;;;;7.05;3.90;;;;;;;18.12;37.32;101150.81;5092089;28;20036;-65
2021/11/25 05:41:17;;;;;;;7.07;4.15;;;;;;;18.13;37.43;101149.00;5092733;28;20073;-65
2021/11/25 05:43:42;;;;;;;5.70;3.53;;;;;;;18.12;37.41;101150.00;5092469;28;20036;-65
2021/11/25 05:46:08;;;;;;;5.80;3.35;;;;;;;18.11;37.43;101146.50;5091931;28;20762;-65
2021/11/25 05:48:33;;;;;;;5.50;3.57;;;;;;;18.12;37.30;101145.53;5092144;28;20035;-65
2021/11/25 05:50:59;;;;;;;6.05;3.65;;;;;;;18.12;37.45;101144.72;5092061;28;20333;-66
2021/11/25 05:53:24;;;;;;;7.30;3.83;;;;;;;18.12;37.23;101152.63;5092319;28;20065;-66
2021/11/25 05:55:49;;;;;;;6.47;3.67;;;;;;;18.11;37.23;101149.13;5092672;28;20052;-66
2021/11/25 05:58:15;;;;;;;6.40;4.15;;;;;;;18.10;37.30;101138.69;5091852;28;20391;-66
2021/11/25 06:00:41;;;;;;;6.07;3.80;;;;;;;18.10;37.58;101139.56;5092215;28;20088;-65
2021/11/25 06:03:07;;;;;;;7.90;4.30;;;;;;;18.10;37.61;101136.91;5092427;28;20445;-65
2021/11/25 06:05:32;;;;;;;5.70;3.30;;;;;;;18.12;38.90;101142.06;5091478;28;20487;-65
2021/11/25 06:07:59;;;;;;;5.53;3.28;;;;;;;18.14;39.37;101137.50;5092498;28;20039;-66
2021/11/25 06:10:25;;;;;;;5.68;3.10;;;;;;;18.16;39.98;101137.41;5092079;28;20028;-65
2021/11/25 06:12:52;;;;;;;4.90;3.17;;;;;;;18.17;39.77;101129.38;5091545;28;20462;-65
2021/11/25 06:15:18;;;;;;;5.50;3.13;;;;;;;18.19;39.67;101130.06;5092012;28;20085;-65
2021/11/25 06:17:43;;;;;;;5.32;2.88;;;;;;;18.22;40.10;101129.84;5091923;28;20024;-65
2021/11/25 06:20:11;;;;;;;5.65;3.35;;;;;;;18.23;40.13;101122.75;5091405;28;20470;-66
2021/11/25 06:22:41;;;;;;;5.20;2.78;;;;;;;18.24;40.13;101120.00;5091951;28;20016;-67
2021/11/25 06:25:07;;;;;;;5.20;2.78;;;;;;;18.26;40.03;101112.84;5092179;28;20421;-65
2021/11/25 06:27:32;;;;;;;4.10;2.50;;;;;;;18.29;40.24;101106.47;5091151;28;20479;-65
2021/11/25 06:29:58;;;;;;;4.53;2.50;;;;;;;18.31;39.98;101112.47;5092141;28;20032;-65
2021/11/25 06:32:23;;;;;;;4.55;2.45;;;;;;;18.34;40.28;101109.59;5091785;28;20064;-66
2021/11/25 06:34:48;;;;;;;5.83;2.63;;;;;;;18.37;40.41;101106.69;5091507;28;20055;-65
2021/11/25 06:37:13;;;;;;;5.30;2.83;;;;;;;18.38;39.83;101097.84;5092084;28;20739;-65
2021/11/25 06:39:39;;;;;;;5.00;2.90;;;;;;;18.39;40.31;101099.53;5091745;28;20632;-65
2021/11/25 06:42:05;;;;;;;5.13;2.60;;;;;;;18.43;40.18;101105.38;5091767;28;20039;-65
2021/11/25 06:44:30;;;;;;;4.30;2.38;;;;;;;18.45;40.03;101103.47;5096013;28;20028;-64
2021/11/25 06:46:55;;;;;;;4.47;2.45;;;;;;;18.46;40.08;101099.88;5096247;28;20032;-65
2021/11/25 06:49:20;;;;;;;4.53;2.50;;;;;;;18.48;40.22;101097.94;5095782;28;20032;-65
2021/11/25 06:51:46;;;;;;;4.93;2.67;;;;;;;18.48;40.25;101090.03;5096563;28;20016;-62
2021/11/25 06:54:11;;;;;;;5.15;2.83;;;;;;;18.48;39.68;101085.63;5096016;28;20562;-65
2021/11/25 06:56:36;;;;;;;6.07;3.97;;;;;;;18.48;38.59;101087.38;5096351;28;20039;-65
2021/11/25 06:59:04;;;;;;;5.80;3.13;;;;;;;18.47;39.07;101102.41;5097203;28;20344;-67
2021/11/25 07:01:32;;;;;;;5.07;2.75;;;;;;;18.50;39.29;101101.31;5095714;28;20288;-65
2021/11/25 07:03:58;;;;;;;4.57;2.80;;;;;;;18.53;39.42;101097.59;5098043;28;20465;-64
2021/11/25 07:06:23;;;;;;;9.60;3.42;;;;;;;18.54;39.50;101089.53;5101932;28;20105;-64
2021/11/25 07:08:49;;;;;;;5.55;2.63;;;;;;;18.57;39.56;101104.31;5099940;28;20035;-62
2021/11/25 07:11:14;;;;;;;4.90;2.50;;;;;;;18.59;39.27;101108.50;5103228;28;20071;-63
2021/11/25 07:13:39;;;;;;;4.93;2.33;;;;;;;18.60;39.39;101112.81;5102511;28;20028;-64
2021/11/25 07:16:05;;;;;;;4.75;2.75;;;;;;;18.62;39.71;101112.69;5101565;28;20035;-65
2021/11/25 07:18:30;;;;;;;5.03;2.70;;;;;;;18.63;39.50;101109.09;5103148;28;20136;-66
2021/11/25 07:20:56;;;;;;;5.75;2.60;;;;;;;18.64;39.43;101108.13;5096746;28;20520;-66
2021/11/25 07:23:21;;;;;;;5.15;2.78;;;;;;;18.64;39.46;101101.06;5095708;28;20112;-65
2021/11/25 07:25:47;;;;;;;5.05;2.50;;;;;;;18.65;39.71;101089.53;5098271;28;20048;-66
2021/11/25 07:28:13;;;;;;;4.57;2.70;;;;;;;18.67;39.88;101090.28;5096573;28;20058;-65
2021/11/25 07:30:38;;;;;;;6.30;2.30;;;;;;;18.70;39.47;101085.69;5094708;28;20464;-64
2021/11/25 07:33:04;;;;;;;5.10;2.42;;;;;;;18.71;39.57;101087.34;5095815;28;20315;-64
2021/11/25 07:35:29;;;;;;;4.75;2.53;;;;;;;18.71;39.78;101092.63;5095305;28;20066;-65
2021/11/25 07:37:55;;;;;;;4.30;2.20;;;;;;;18.72;39.86;101097.78;5094719;28;20020;-63
2021/11/25 07:40:23;;;;;;;4.18;2.20;;;;;;;18.74;39.73;101102.94;5095757;28;20027;-64
2021/11/25 07:42:48;;;;;;;4.10;2.10;;;;;;;18.76;39.82;101103.69;5095445;28;20501;-63
2021/11/25 07:45:14;;;;;;;3.53;2.08;;;;;;;18.77;39.74;101100.06;5094369;28;20126;-60
2021/11/25 07:47:40;;;;;;;4.72;2.55;;;;;;;18.78;40.00;101101.75;5095222;28;20043;-66
2021/11/25 07:50:15;;;;;;;6.15;3.22;;;;;;;18.76;39.38;101101.06;5096042;28;20031;-65
2021/11/25 07:52:41;;;;;;;6.22;2.70;;;;;;;18.76;39.95;101112.44;5094642;28;20073;-65
2021/11/25 07:55:10;;;;;;;4.70;2.45;;;;;;;18.78;39.93;101112.31;5094915;28;20028;-66
2021/11/25 07:57:35;;;;;;;5.15;2.35;;;;;;;18.80;40.35;101107.75;5094744;28;20030;-64
2021/11/25 08:00:01;;;;;;;5.63;2.42;;;;;;;18.80;40.29;101108.59;5095454;28;20199;-65
2021/11/25 08:02:27;;;;;;;5.28;2.25;;;;;;;18.80;40.16;101110.38;5095075;28;20016;-64
2021/11/25 08:04:53;;;;;;;5.93;2.50;;;;;;;18.83;39.97;101113.66;5094254;28;20097;-67
2021/11/25 08:07:18;;;;;;;4.90;2.50;;;;;;;18.82;40.20;101105.84;5094708;28;20020;-65
2021/11/25 08:09:44;;;;;;;5.28;2.47;;;;;;;18.83;40.15;101113.66;5094555;28;20463;-64
2021/11/25 08:12:10;;;;;;;4.25;2.33;;;;;;;18.87;40.45;101116.03;5093928;28;20016;-67
2021/11/25 08:14:35;;;;;;;4.78;2.40;;;;;;;18.85;40.16;101116.19;5094293;28;20483;-65
2021/11/25 08:17:01;;;;;;;4.35;2.20;;;;;;;18.87;40.50;101113.41;5094702;28;20479;-62
2021/11/25 08:19:27;;;;;;;6.07;3.30;;;;;;;18.83;39.83;101124.22;5093648;28;20023;-63
2021/11/25 08:21:54;;;;;;;5.55;2.65;;;;;;;18.84;40.21;101117.16;5095210;28;20030;-64
2021/11/25 08:24:19;;;;;;;4.97;2.50;;;;;;;18.89;40.29;101122.06;5095630;28;20036;-67
2021/11/25 08:26:44;;;;;;;5.25;2.75;;;;;;;19.03;39.80;101117.34;5097218;28;20035;-69
2021/11/25 08:29:10;;;;;;;4.80;2.70;;;;;;;19.16;39.39;101117.19;5096186;28;20028;-68
2021/11/25 08:31:35;;;;;;;6.55;2.58;;;;;;;19.28;39.30;101115.34;5096645;28;20305;-68
2021/11/25 08:34:00;;;;;;;4.85;2.60;;;;;;;19.36;38.63;101120.03;5094414;28;20039;-68
2021/11/25 08:36:26;;;;;;;4.95;2.95;;;;;;;19.42;38.38;101118.66;5095804;28;20020;-68
2021/11/25 08:38:51;;;;;;;6.57;2.83;;;;;;;19.46;38.27;101131.50;5094882;28;20032;-65
2021/11/25 08:41:17;;;;;;;4.90;2.78;;;;;;;19.48;38.03;101129.56;5094795;28;20024;-61
2021/11/25 08:43:42;;;;;;;4.75;2.75;;;;;;;19.49;37.92;101135.69;5094510;28;20048;-64
2021/11/25 08:46:07;;;;;;;5.15;2.63;;;;;;;19.43;38.29;101138.84;5094183;28;20073;-64
2021/11/25 08:48:32;;;;;;;5.38;2.75;;;;;;;19.34;38.61;101128.06;5092987;28;20073;-65
2021/11/25 08:50:58;;;;;;;6.05;3.03;;;;;;;19.36;38.38;101127.94;5094674;28;20408;-65
2021/11/25 08:53:24;;;;;;;6.40;2.80;;;;;;;19.44;38.28;101130.78;5095894;28;20379;-68
2021/11/25 08:55:50;;;;;;;4.97;2.85;;;;;;;19.52;37.85;101125.72;5095938;28;20047;-66
2021/11/25 08:58:16;;;;;;;4.68;2.78;;;;;;;19.56;37.62;101128.94;5095646;28;20421;-66
2021/11/25 09:00:41;;;;;;;6.28;3.15;;;;;;;19.57;37.63;101120.03;5093948;28;20024;-66
2021/11/25 09:03:06;;;;;;;6.45;3.05;;;;;;;19.51;37.93;101116.09;5093224;28;20031;-66
2021/11/25 09:05:32;;;;;;;5.72;3.90;;;;;;;19.45;37.08;101119.22;5093060;28;20032;-67
2021/11/25 09:07:59;;;;;;;4.47;2.67;;;;;;;19.35;38.14;101105.13;5091926;28;20028;-67
2021/11/25 09:10:24;;;;;;;4.47;2.58;;;;;;;19.28;38.30;101103.94;5093247;28;20380;-66
2021/11/25 09:12:50;;;;;;;5.65;2.90;;;;;;;19.21;38.27;101099.16;5093773;28;20031;-66
2021/11/25 09:15:16;;;;;;;5.85;2.47;;;;;;;19.18;38.62;101093.28;5092537;28;20047;-66
2021/11/25 09:17:42;;;;;;;6.43;3.00;;;;;;;19.13;38.57;101092.81;5093327;28;20533;-66
2021/11/25 09:20:08;;;;;;;4.68;2.40;;;;;;;19.09;38.67;101100.16;5093377;28;20020;-66
2021/11/25 09:22:33;;;;;;;6.60;3.03;;;;;;;19.07;38.45;101099.44;5092233;28;20032;-66
2021/11/25 09:24:59;;;;;;;4.95;2.47;;;;;;;19.05;38.69;101104.00;5093260;28;20333;-66
2021/11/25 09:27:25;;;;;;;4.43;2.17;;;;;;;19.05;38.91;101103.19;5092809;28;20061;-66
2021/11/25 09:29:50;;;;;;;7.20;2.53;;;;;;;19.01;38.80;101098.16;5092702;28;20111;-66
2021/11/25 09:32:16;;;;;;;5.75;3.22;;;;;;;18.97;38.38;101104.63;5093315;28;20366;-66
2021/11/25 09:34:41;;;;;;;5.03;3.13;;;;;;;18.96;38.53;101094.19;5092881;28;20023;-66
2021/11/25 09:37:08;;;;;;;6.55;2.97;;;;;;;18.98;38.57;101106.31;5093189;28;20032;-67
2021/11/25 09:39:33;;;;;;;5.32;2.60;;;;;;;19.07;38.69;101102.06;5093169;28;20024;-65
2021/11/25 09:41:59;;;;;;;5.68;2.75;;;;;;;19.13;38.46;101095.47;5093035;28;20027;-65
2021/11/25 09:44:25;;;;;;;5.63;2.55;;;;;;;19.11;38.86;101092.94;5092173;28;20051;-66
2021/11/25 09:46:56;;;;;;;4.95;2.58;;;;;;;19.08;38.75;101109.03;5093078;28;20035;-64
2021/11/25 09:49:23;;;;;;;5.07;2.60;;;;;;;19.08;39.05;101110.84;5092975;28;20085;-66
2021/11/25 09:51:49;;;;;;;4.28;2.47;;;;;;;19.05;39.32;101100.53;5092518;28;20036;-65
2021/11/25 09:54:14;;;;;;;6.43;2.80;;;;;;;19.01;39.24;101106.06;5092727;28;20101;-66
2021/11/25 09:56:40;;;;;;;5.50;2.63;;;;;;;19.02;39.36;101106.91;5092403;28;20106;-63
2021/11/25 09:59:05;;;;;;;5.88;2.75;;;;;;;18.98;39.01;101101.03;5092111;28;20024;-67
2021/11/25 10:01:31;;;;;;;6.20;3.10;;;;;;;18.99;39.32;101093.94;5092231;28;20043;-64
2021/11/25 10:03:56;;;;;;;6.88;2.95;;;;;;;18.98;39.66;101098.38;5092768;28;20284;-64
2021/11/25 10:06:30;;;;;;;5.97;3.13;;;;;;;18.97;39.43;101111.72;5092052;28;20016;-66
2021/11/25 10:08:57;;;;;;;6.82;2.70;;;;;;;18.98;39.79;101108.13;5092471;28;20475;-66
2021/11/25 10:11:28;;;;;;;11.23;3.55;;;;;;;18.96;39.62;101110.03;5092035;28;20124;-65
2021/11/25 10:14:09;;;;;;;9.40;3.20;;;;;;;18.96;39.63;101105.59;5092331;28;20419;-65
2021/11/25 10:16:38;;;;;;;6.70;2.80;;;;;;;18.93;39.78;101092.66;5092410;28;20059;-71
2021/11/25 10:19:13;;;;;;;5.93;2.88;;;;;;;18.96;39.72;101102.09;5091911;28;20036;-69
2021/11/25 10:21:41;;;;;;;5.78;2.88;;;;;;;19.03;39.54;101098.03;5093781;28;20535;-66
2021/11/25 10:24:07;;;;;;;5.60;3.00;;;;;;;19.14;39.25;101102.44;5092791;28;20056;-64
2021/11/25 10:26:33;;;;;;;7.35;3.20;;;;;;;19.24;39.21;101103.34;5091924;28;20052;-67
2021/11/25 10:29:07;;;;;;;6.10;3.22;;;;;;;19.27;39.11;101105.75;5092406;28;20036;-66
2021/11/25 10:31:38;;;;;;;6.15;3.72;;;;;;;19.24;39.40;101110.44;5092178;28;20033;-65
2021/11/25 10:34:08;;;;;;;5.22;3.00;;;;;;;19.20;39.54;101110.69;5091563;28;20514;-64
2021/11/25 10:42:06;;;;;;;8.18;3.03;;;;;;;19.10;39.50;101093.06;5092450;28;20107;-64
2021/11/25 10:44:36;;;;;;;6.47;3.42;;;;;;;19.08;39.72;101100.28;5091853;28;20439;-61
2021/11/25 10:47:10;;;;;;;8.48;3.45;;;;;;;19.05;39.73;101097.91;5091753;28;20039;-63
2021/11/25 10:49:50;;;;;;;6.70;2.90;;;;;;;19.03;39.71;101096.22;5092004;28;20031;-64
2021/11/25 10:52:41;;;;;;;7.55;3.42;;;;;;;19.03;40.09;101095.38;5092382;28;20039;-66
2021/11/25 10:55:12;;;;;;;6.90;3.47;;;;;;;19.02;40.02;101098.97;5091630;28;20040;-65
2021/11/25 10:57:49;;;;;;;7.82;3.58;;;;;;;19.00;40.16;101101.75;5092024;28;20020;-65
2021/11/25 11:00:24;;;;;;;7.50;3.78;;;;;;;18.98;39.98;101093.09;5092293;28;20043;-65
2021/11/25 11:03:10;;;;;;;6.70;3.85;;;;;;;18.99;39.82;101091.28;5092129;28;20024;-67
2021/11/25 11:05:49;;;;;;;6.75;3.95;;;;;;;18.98;39.87;101098.38;5091932;28;20020;-67
2021/11/25 11:08:16;;;;;;;6.88;3.58;;;;;;;18.97;40.09;101109.06;5091448;28;20067;-66
2021/11/25 11:10:59;;;;;;;9.43;4.00;;;;;;;18.96;39.62;101104.75;5091797;28;20112;-66
2021/11/25 11:16:12;;;;;;;7.72;4.22;;;;;;;18.93;39.95;101097.94;5091265;28;20044;-66
2021/11/25 11:18:53;;;;;;;8.13;3.70;;;;;;;18.95;40.13;101097.81;5091833;28;20036;-66
2021/11/25 11:21:39;;;;;;;7.13;3.97;;;;;;;18.99;39.70;101102.72;5092931;28;20041;-65
2021/11/25 11:24:17;;;;;;;7.90;4.20;;;;;;;19.10;39.87;101108.91;5092097;28;20484;-67
2021/11/25 11:26:48;;;;;;;7.13;3.67;;;;;;;19.20;39.52;101109.84;5092362;28;20032;-66
2021/11/25 11:29:17;;;;;;;8.55;4.22;;;;;;;19.28;39.19;101106.56;5092071;28;20081;-65
2021/11/25 11:31:43;;;;;;;8.38;4.10;;;;;;;19.35;39.25;101105.13;5095742;28;20023;-68
2021/11/25 11:34:10;;;;;;;9.48;3.75;;;;;;;19.38;39.19;101105.69;5095456;28;20028;-70